Time;durP1;ratioP1;P1;durP2;ratioP2;P2;SDS_P1;SDS_P2;PMS_P1;PMS_P2;Temp;Humidity;BMP_temperature;BMP_pressure;BME280_temperature;BME280_humidity;BME280_pressure;Samples;Min_cycle;Max_cycle;Signal;HPM_P1;HPM_P2
2021/07/29 00:03:25;;;;;;;20.70;10.00;;;640.00;2432.00;;;;;;5018561;28;20029;-92
2021/07/29 00:06:35;;;;;;;;;;;;;;;;;;;;;
2021/07/29 00:09:13;;;;;;;20.67;9.77;;;640.00;2432.00;;;;;;5016125;28;20028;-89
2021/07/29 00:11:51;;;;;;;22.00;9.57;;;615.30;2432.00;;;;;;5016365;28;20084;-91
2021/07/29 00:14:23;;;;;;;18.50;9.20;;;640.00;2432.00;;;;;;5016446;28;20022;-90
2021/07/29 00:17:26;;;;;;;;;;;;;;;;;;;;;
2021/07/29 00:20:14;;;;;;;22.35;9.88;;;640.10;2432.00;;;;;;5016789;28;20109;-89
2021/07/29 00:23:06;;;;;;;25.75;9.43;;;640.10;2432.00;;;;;;5015881;28;20026;-91
2021/07/29 00:25:41;;;;;;;20.73;9.93;;;640.10;2432.00;;;;;;5015978;28;20475;-91
2021/07/29 00:29:08;;;;;;;;;;;;;;;;;;;;;
2021/07/29 00:35:29;;;;;;;31.67;14.32;;;614.90;2432.00;;;;;;4982474;28;20062;-90
2021/07/29 00:38:01;;;;;;;22.58;11.23;;;614.90;2432.00;;;;;;5015633;28;20041;-91
2021/07/29 00:40:32;;;;;;;25.38;10.93;;;615.00;2432.00;;;;;;5015093;28;20088;-90
2021/07/29 00:43:17;;;;;;;27.05;13.52;;;615.10;2432.00;;;;;;5015934;28;20026;-91
2021/07/29 00:45:56;;;;;;;24.55;11.07;;;614.80;2432.00;;;;;;5015648;28;20105;-91
2021/07/29 00:48:22;;;;;;;21.88;10.45;;;614.60;2432.00;;;;;;5015938;28;20022;-90
2021/07/29 00:50:49;;;;;;;22.02;9.85;;;589.00;2432.00;;;;;;5015751;28;20029;-90
2021/07/29 00:53:18;;;;;;;20.52;10.10;;;614.80;2432.00;;;;;;5014349;28;20037;-91
2021/07/29 00:55:48;;;;;;;19.75;9.07;;;614.70;2432.00;;;;;;5015457;28;20486;-91
2021/07/29 00:58:14;;;;;;;27.40;11.38;;;615.20;2432.00;;;;;;5015495;28;20038;-90
2021/07/29 01:00:41;;;;;;;20.38;9.95;;;615.10;2432.00;;;;;;5015496;28;20113;-89
2021/07/29 01:03:10;;;;;;;22.92;10.27;;;615.00;2432.00;;;;;;5015460;28;20455;-91
2021/07/29 01:05:36;;;;;;;21.10;11.20;;;615.00;2432.00;;;;;;5015455;28;20430;-91
2021/07/29 01:08:05;;;;;;;20.15;9.55;;;614.80;2432.00;;;;;;5016359;28;20079;-90
2021/07/29 01:10:34;;;;;;;20.92;10.68;;;614.80;2432.00;;;;;;5016939;28;20026;-90
2021/07/29 01:13:01;;;;;;;17.33;9.75;;;615.20;2432.00;;;;;;5016402;28;20025;-90
2021/07/29 01:15:27;;;;;;;23.00;9.82;;;614.70;2432.00;;;;;;5017194;28;20422;-89
2021/07/29 01:18:00;;;;;;;21.30;9.35;;;614.80;2432.00;;;;;;5017764;28;20026;-91
2021/07/29 01:20:28;;;;;;;20.20;9.38;;;614.80;2432.00;;;;;;5016597;28;20022;-90
2021/07/29 01:22:57;;;;;;;20.17;10.23;;;614.90;2432.00;;;;;;5000908;28;20049;-90
2021/07/29 01:25:23;;;;;;;19.80;9.60;;;614.70;2432.00;;;;;;5017089;28;20028;-92
2021/07/29 01:27:50;;;;;;;21.98;9.52;;;614.70;2432.00;;;;;;5022773;28;20041;-90
2021/07/29 01:30:19;;;;;;;20.55;9.13;;;614.80;2432.00;;;;;;5031181;28;20044;-90
2021/07/29 01:32:45;;;;;;;20.73;8.90;;;589.70;2432.00;;;;;;5036157;28;20014;-89
2021/07/29 01:35:11;;;;;;;16.48;8.45;;;589.70;2432.00;;;;;;5025042;28;20029;-91
2021/07/29 01:37:39;;;;;;;22.17;9.00;;;589.70;2432.00;;;;;;5032677;28;20082;-92
2021/07/29 01:40:09;;;;;;;19.05;9.10;;;589.70;2432.00;;;;;;5038765;28;20008;-90
2021/07/29 01:42:40;;;;;;;22.25;8.95;;;589.70;2432.00;;;;;;5034467;28;20010;-92
2021/07/29 01:45:12;;;;;;;18.77;9.32;;;589.60;2432.00;;;;;;5037898;28;20038;-90
2021/07/29 01:47:38;;;;;;;21.67;9.70;;;589.50;2432.00;;;;;;5037173;28;20052;-89
2021/07/29 01:50:05;;;;;;;18.65;8.13;;;563.70;2432.00;;;;;;5037334;28;20155;-91
2021/07/29 01:52:31;;;;;;;18.73;9.10;;;589.50;2432.00;;;;;;5036374;28;20013;-86
2021/07/29 01:54:59;;;;;;;24.58;9.23;;;589.40;2432.00;;;;;;5035576;28;20030;-87
2021/07/29 01:57:26;;;;;;;18.90;9.30;;;615.00;2432.00;;;;;;5036478;28;20054;-88
2021/07/29 01:59:52;;;;;;;21.13;9.57;;;589.10;2432.00;;;;;;5036513;28;20029;-88
2021/07/29 02:02:19;;;;;;;21.08;8.70;;;589.40;2432.00;;;;;;5036503;28;20060;-88
2021/07/29 02:04:45;;;;;;;18.80;9.73;;;563.70;2432.00;;;;;;5034817;28;20040;-89
2021/07/29 02:07:16;;;;;;;23.92;9.30;;;614.40;2432.00;;;;;;5034111;28;20030;-90
2021/07/29 02:09:42;;;;;;;23.73;9.40;;;589.10;2432.00;;;;;;5016828;28;20033;-90
2021/07/29 02:12:18;;;;;;;20.63;10.07;;;588.90;2432.00;;;;;;5015585;28;20539;-90
2021/07/29 02:14:44;;;;;;;22.58;9.32;;;589.20;2432.00;;;;;;5015200;28;20026;-90
2021/07/29 02:17:11;;;;;;;21.30;9.32;;;589.10;2432.00;;;;;;5015246;28;20038;-90
2021/07/29 02:19:37;;;;;;;20.92;10.52;;;589.00;2432.00;;;;;;5015224;28;20022;-91
2021/07/29 02:22:03;;;;;;;20.95;10.30;;;563.80;2432.00;;;;;;5014887;28;20101;-90
2021/07/29 02:24:32;;;;;;;21.63;9.30;;;589.00;2432.00;;;;;;5014120;28;20022;-90
2021/07/29 02:27:01;;;;;;;18.65;9.02;;;589.00;2432.00;;;;;;5014151;28;20127;-91
2021/07/29 02:29:30;;;;;;;17.27;9.55;;;589.00;2432.00;;;;;;5014197;28;20507;-90
2021/07/29 02:32:11;;;;;;;22.25;9.40;;;588.90;2432.00;;;;;;5013177;28;20029;-92
2021/07/29 02:34:37;;;;;;;18.98;9.93;;;589.00;2432.00;;;;;;5013721;28;20038;-90
2021/07/29 02:37:07;;;;;;;20.73;9.07;;;588.90;2432.00;;;;;;5013940;28;20108;-91
2021/07/29 02:39:33;;;;;;;21.58;9.30;;;589.20;2432.00;;;;;;5013705;28;20022;-90
2021/07/29 02:42:06;;;;;;;20.23;9.15;;;588.80;2432.00;;;;;;5014208;28;20028;-91
2021/07/29 02:44:35;;;;;;;23.25;10.27;;;564.10;2432.00;;;;;;5013574;28;20018;-90
2021/07/29 02:47:01;;;;;;;18.27;8.43;;;564.10;2432.00;;;;;;5013378;28;20030;-91
2021/07/29 02:49:28;;;;;;;18.45;10.35;;;564.10;2432.00;;;;;;5013531;28;20029;-92
2021/07/29 02:51:57;;;;;;;20.38;8.50;;;564.00;2432.00;;;;;;5013276;28;20085;-91
2021/07/29 02:54:24;;;;;;;21.73;10.40;;;564.10;2432.00;;;;;;5013710;28;20052;-90
2021/07/29 02:56:50;;;;;;;20.90;9.43;;;589.70;2432.00;;;;;;5013474;28;20026;-90
2021/07/29 02:59:16;;;;;;;16.42;9.95;;;563.90;2432.00;;;;;;5013789;28;20018;-91
2021/07/29 03:01:43;;;;;;;20.98;9.68;;;563.70;2432.00;;;;;;5014170;28;20142;-90
2021/07/29 03:04:12;;;;;;;24.08;10.55;;;563.30;2432.00;;;;;;5013601;28;20029;-93
2021/07/29 03:06:38;;;;;;;31.08;10.00;;;563.80;2432.00;;;;;;5013421;28;20018;-90
2021/07/29 03:09:10;;;;;;;16.83;9.38;;;563.80;2432.00;;;;;;5013496;28;20464;-90
2021/07/29 03:11:36;;;;;;;28.13;9.98;;;563.90;2432.00;;;;;;5014160;28;20069;-90
2021/07/29 03:14:02;;;;;;;23.67;9.40;;;563.90;2432.00;;;;;;5013522;28;20058;-89
2021/07/29 03:16:32;;;;;;;19.42;9.10;;;537.80;2406.40;;;;;;5013528;28;20041;-90
2021/07/29 03:19:01;;;;;;;23.45;9.07;;;563.60;2432.00;;;;;;5013035;28;20034;-91
2021/07/29 03:21:28;;;;;;;16.70;10.50;;;537.80;2406.40;;;;;;5013211;28;20022;-90
2021/07/29 03:23:57;;;;;;;21.65;9.38;;;563.50;2432.00;;;;;;5013603;28;20021;-88
2021/07/29 03:26:25;;;;;;;26.98;11.13;;;563.50;2432.00;;;;;;5013706;28;20117;-92
2021/07/29 03:28:54;;;;;;;17.80;8.95;;;563.60;2432.00;;;;;;5022934;28;20399;-89
2021/07/29 03:31:21;;;;;;;20.83;9.50;;;563.60;2432.00;;;;;;5014146;28;20471;-92
2021/07/29 03:33:47;;;;;;;24.73;9.18;;;563.90;2432.00;;;;;;5013312;28;20022;-90
2021/07/29 03:36:30;;;;;;;17.45;9.07;;;563.60;2432.00;;;;;;5013102;28;20030;-89
2021/07/29 03:38:59;;;;;;;21.73;10.02;;;563.20;2432.00;;;;;;5013159;28;20490;-90
2021/07/29 03:41:29;;;;;;;19.65;9.18;;;589.20;2432.00;;;;;;5013185;28;20046;-89
2021/07/29 03:44:03;;;;;;;23.35;9.70;;;563.70;2432.00;;;;;;5015300;28;20105;-89
2021/07/29 03:47:12;;;;;;;23.13;9.48;;;563.80;2432.00;;;;;;5015582;28;20040;-89
2021/07/29 03:49:39;;;;;;;18.17;9.30;;;563.60;2432.00;;;;;;5008882;28;20129;-90
2021/07/29 03:52:31;;;;;;;16.50;9.27;;;563.50;2432.00;;;;;;5016577;28;20022;-90
2021/07/29 03:54:58;;;;;;;18.75;10.63;;;564.10;2432.00;;;;;;5012635;28;20048;-90
2021/07/29 03:57:24;;;;;;;19.92;9.70;;;563.50;2432.00;;;;;;5016251;28;20034;-90
2021/07/29 03:59:51;;;;;;;23.30;10.30;;;538.40;2406.40;;;;;;5016669;28;20033;-90
2021/07/29 04:02:19;;;;;;;21.40;10.52;;;563.50;2432.00;;;;;;5016634;28;20023;-90
2021/07/29 04:04:51;;;;;;;22.20;9.15;;;563.20;2432.00;;;;;;5016731;28;20480;-91
2021/07/29 04:07:20;;;;;;;25.65;10.63;;;563.50;2432.00;;;;;;5016978;28;20030;-90
2021/07/29 04:09:59;;;;;;;;;;;;;;;;;;;;;
2021/07/29 04:12:26;;;;;;;24.48;9.98;;;563.40;2432.00;;;;;;5019978;28;20026;-90
2021/07/29 04:15:02;;;;;;;22.63;10.50;;;538.50;2406.40;;;;;;5016003;28;20025;-89
2021/07/29 04:17:28;;;;;;;25.67;13.00;;;563.30;2432.00;;;;;;5001179;28;20026;-90
2021/07/29 04:19:59;;;;;;;29.52;10.57;;;588.80;2432.00;;;;;;5016005;28;20100;-90
2021/07/29 04:22:26;;;;;;;23.45;10.10;;;538.40;2406.40;;;;;;5016349;28;20029;-89
2021/07/29 04:24:58;;;;;;;22.88;9.40;;;538.00;2406.40;;;;;;5015985;28;20364;-90
2021/07/29 04:27:28;;;;;;;25.83;10.45;;;538.50;2406.40;;;;;;5015545;28;20038;-90
2021/07/29 04:29:56;;;;;;;21.52;10.50;;;588.80;2432.00;;;;;;5016065;28;20030;-91
2021/07/29 04:32:23;;;;;;;30.20;11.27;;;563.20;2432.00;;;;;;5015868;28;20591;-91
2021/07/29 04:34:49;;;;;;;25.35;10.98;;;563.90;2432.00;;;;;;5015797;28;20092;-91
2021/07/29 04:37:20;;;;;;;32.80;11.88;;;563.20;2432.00;;;;;;5015634;28;20026;-92
2021/07/29 04:39:46;;;;;;;26.52;11.80;;;537.70;2406.40;;;;;;5015979;28;20036;-91
2021/07/29 04:42:20;;;;;;;26.70;11.27;;;563.40;2432.00;;;;;;5015700;28;20021;-92
2021/07/29 04:45:17;;;;;;;30.92;11.93;;;538.50;2406.40;;;;;;5015818;28;20022;-90
2021/07/29 04:47:59;;;;;;;27.02;10.55;;;538.50;2406.40;;;;;;5003926;28;20037;-92
2021/07/29 04:50:25;;;;;;;24.30;10.65;;;538.50;2406.40;;;;;;5015932;28;20026;-90
2021/07/29 04:52:53;;;;;;;21.92;9.95;;;563.20;2432.00;;;;;;5015725;28;20025;-92
2021/07/29 04:55:20;;;;;;;25.48;11.77;;;563.20;2432.00;;;;;;5018195;28;20033;-90
2021/07/29 04:57:46;;;;;;;27.65;10.45;;;563.50;2432.00;;;;;;5018662;28;20105;-90
2021/07/29 05:00:13;;;;;;;24.00;10.90;;;563.20;2432.00;;;;;;5018654;28;20112;-90
2021/07/29 05:02:39;;;;;;;23.95;10.23;;;563.20;2432.00;;;;;;5018563;28;20029;-90
2021/07/29 05:05:06;;;;;;;20.45;11.20;;;563.30;2432.00;;;;;;5018552;28;20028;-91
2021/07/29 05:07:35;;;;;;;27.08;11.35;;;538.50;2406.40;;;;;;5018367;28;20044;-90
2021/07/29 05:10:01;;;;;;;27.08;13.50;;;538.00;2406.40;;;;;;5018316;28;20025;-90
2021/07/29 05:12:27;;;;;;;39.58;17.65;;;563.50;2432.00;;;;;;5018302;28;20095;-90
2021/07/29 05:14:56;;;;;;;33.00;17.90;;;563.80;2432.00;;;;;;5018587;28;20029;-89
2021/07/29 05:17:26;;;;;;;32.88;16.98;;;564.10;2432.00;;;;;;5018559;28;20025;-91
2021/07/29 05:19:56;;;;;;;37.08;15.90;;;563.70;2432.00;;;;;;5018543;28;20068;-90
2021/07/29 05:22:26;;;;;;;33.45;14.30;;;563.70;2432.00;;;;;;5018316;28;20060;-90
2021/07/29 05:24:52;;;;;;;26.60;12.35;;;563.60;2432.00;;;;;;5018219;28;20053;-90
2021/07/29 05:27:57;;;;;;;;;;;;;;;;;;;;;
2021/07/29 05:30:31;;;;;;;38.13;24.88;;;563.90;2432.00;;;;;;5035475;28;20474;-90
2021/07/29 05:33:00;;;;;;;35.53;17.38;;;564.00;2432.00;;;;;;5018087;28;20041;-90
2021/07/29 05:35:29;;;;;;;29.13;13.35;;;564.10;2432.00;;;;;;5017807;28;20025;-91
2021/07/29 05:38:14;;;;;;;44.30;23.58;;;588.80;2432.00;;;;;;5017912;28;20036;-90
2021/07/29 05:41:25;;;;;;;39.80;17.25;;;588.80;2432.00;;;;;;5018097;28;20378;-89
2021/07/29 05:44:41;;;;;;;;;;;;;;;;;;;;;
2021/07/29 05:47:15;;;;;;;24.90;10.15;;;588.80;2432.00;;;;;;4978808;28;20038;-90
2021/07/29 05:53:32;;;;;;;23.05;10.30;;;589.10;2432.00;;;;;;4959565;28;20167;-91
2021/07/29 05:56:28;;;;;;;21.35;10.20;;;589.20;2432.00;;;;;;5017830;28;20041;-89
2021/07/29 05:59:01;;;;;;;27.35;10.25;;;589.40;2432.00;;;;;;5017412;28;20089;-90
2021/07/29 06:01:57;;;;;;;;;;;;;;;;;;;;;
2021/07/29 06:04:52;;;;;;;25.48;9.98;;;614.80;2432.00;;;;;;5035069;28;20028;-90
2021/07/29 06:07:29;;;;;;;22.88;9.85;;;589.50;2432.00;;;;;;5013671;28;20072;-91
2021/07/29 06:10:05;;;;;;;28.40;11.40;;;589.70;2432.00;;;;;;5016679;28;20057;-91
2021/07/29 06:12:37;;;;;;;26.92;10.25;;;589.70;2432.00;;;;;;5017742;28;20466;-90
2021/07/29 06:15:09;;;;;;;19.55;9.20;;;614.40;2432.00;;;;;;5017769;28;20026;-90
2021/07/29 06:17:37;;;;;;;24.58;9.85;;;614.60;2432.00;;;;;;5017639;28;20025;-89
2021/07/29 06:20:11;;;;;;;19.58;9.23;;;614.80;2432.00;;;;;;5017428;28;20027;-90
2021/07/29 06:22:48;;;;;;;28.00;11.00;;;614.50;2432.00;;;;;;5017332;28;20585;-90
2021/07/29 06:25:17;;;;;;;28.73;10.30;;;589.70;2432.00;;;;;;5017488;28;20021;-89
2021/07/29 06:28:08;;;;;;;26.05;11.05;;;588.80;2432.00;;;;;;5016734;28;20108;-90
2021/07/29 06:30:48;;;;;;;26.90;9.82;;;614.80;2432.00;;;;;;5017218;28;20033;-91
2021/07/29 06:33:42;;;;;;;29.23;10.60;;;614.90;2432.00;;;;;;5017073;28;20039;-89
2021/07/29 06:39:06;;;;;;;;;;;615.20;2432.00;;;;;;5013877;28;20553;-90
2021/07/29 06:41:48;;;;;;;28.75;11.82;;;640.00;2432.00;;;;;;5017046;28;19905;-91
2021/07/29 06:44:48;;;;;;;;;;;;;;;;;;;;;
2021/07/29 06:47:18;;;;;;;27.25;10.85;;;640.40;2432.00;;;;;;5034669;28;20018;-90
2021/07/29 06:49:54;;;;;;;22.48;9.48;;;640.50;2432.00;;;;;;5017021;28;20022;-90
2021/07/29 06:52:39;;;;;;;24.70;10.02;;;640.70;2432.00;;;;;;5017072;28;20446;-89
2021/07/29 06:55:06;;;;;;;24.90;10.55;;;640.80;2432.00;;;;;;5012556;28;20125;-89
2021/07/29 07:01:08;;;;;;;26.75;9.50;;;665.90;2432.00;;;;;;4954622;29;20028;-92
2021/07/29 07:04:22;;;;;;;40.75;11.18;;;665.90;2432.00;;;;;;4938363;29;20031;-90
2021/07/29 07:07:36;;;;;;;31.45;10.77;;;666.20;2432.00;;;;;;4911148;29;20031;-89
2021/07/29 07:10:34;;;;;;;;;;;;;;;;;;;;;
2021/07/29 07:17:02;;;;;;;32.60;10.15;;;691.30;2432.00;;;;;;4999435;28;20491;-91
2021/07/29 07:19:41;;;;;;;22.65;8.77;;;691.40;2432.00;;;;;;5016390;28;20223;-90
2021/07/29 07:25:33;;;;;;;25.83;10.20;;;691.70;2432.00;;;;;;5017956;28;20506;-90
2021/07/29 07:28:10;;;;;;;37.13;10.57;;;691.90;2432.00;;;;;;5016984;28;20129;-92
2021/07/29 07:30:39;;;;;;;22.88;9.32;;;692.10;2432.00;;;;;;5016893;28;20029;-85
2021/07/29 07:33:05;;;;;;;25.35;9.15;;;716.90;2432.00;;;;;;5016359;28;20084;-82
2021/07/29 07:35:31;;;;;;;27.23;9.57;;;717.00;2432.00;;;;;;5016395;28;20022;-82
2021/07/29 07:37:57;;;;;;;24.42;9.50;;;717.20;2432.00;;;;;;5015604;28;20026;-81
2021/07/29 07:40:22;;;;;;;24.67;9.15;;;717.20;2432.00;;;;;;5015797;28;20475;-86
2021/07/29 07:42:50;;;;;;;27.48;9.82;;;717.50;2432.00;;;;;;5015832;28;20045;-81
2021/07/29 07:45:15;;;;;;;31.25;9.63;;;717.60;2380.80;;;;;;5015972;28;20034;-85
2021/07/29 07:47:42;;;;;;;36.15;9.43;;;742.40;2355.20;;;;;;5016015;28;20033;-82
2021/07/29 07:50:08;;;;;;;25.50;9.15;;;742.60;2355.20;;;;;;5015871;28;20022;-82
2021/07/29 07:52:34;;;;;;;20.92;8.88;;;742.80;2329.60;;;;;;5015482;28;20022;-83
2021/07/29 07:55:00;;;;;;;28.88;9.57;;;742.80;2304.00;;;;;;5015023;28;20104;-83
2021/07/29 07:57:26;;;;;;;24.65;9.80;;;742.90;2304.00;;;;;;5015704;28;20076;-82
2021/07/29 07:59:56;;;;;;;29.00;10.35;;;743.00;2329.60;;;;;;5015052;28;20391;-83
2021/07/29 08:02:22;;;;;;;28.50;11.07;;;743.10;2278.40;;;;;;5013709;28;20050;-83
2021/07/29 08:04:48;;;;;;;28.00;11.05;;;743.10;2252.80;;;;;;5015539;28;20130;-84
2021/07/29 08:07:13;;;;;;;31.52;10.30;;;743.30;2278.40;;;;;;5016005;28;20539;-84
2021/07/29 08:09:39;;;;;;;30.90;10.20;;;768.10;2201.60;;;;;;5015751;28;20065;-83
2021/07/29 08:12:05;;;;;;;25.13;9.73;;;768.40;2227.20;;;;;;5015210;28;20057;-83
2021/07/29 08:14:38;;;;;;;22.52;9.10;;;768.60;2124.80;;;;;;5017934;28;20117;-88
2021/07/29 08:17:05;;;;;;;25.60;9.27;;;768.50;2124.80;;;;;;5013044;28;20442;-85
2021/07/29 08:19:31;;;;;;;25.70;9.25;;;768.60;2099.20;;;;;;5014496;28;20033;-83
2021/07/29 08:21:58;;;;;;;27.25;10.73;;;768.90;2073.60;;;;;;5014043;28;20022;-83
2021/07/29 08:24:24;;;;;;;28.65;12.05;;;793.60;2176.00;;;;;;5014508;28;20022;-84
2021/07/29 08:26:50;;;;;;;24.73;10.65;;;793.90;2099.20;;;;;;5014492;28;20041;-82
2021/07/29 08:29:16;;;;;;;38.33;15.25;;;794.00;2099.20;;;;;;5013707;28;20040;-84
2021/07/29 08:31:42;;;;;;;30.63;12.07;;;794.20;2124.80;;;;;;5014789;28;20030;-84
2021/07/29 08:34:08;;;;;;;30.85;11.07;;;794.40;2124.80;;;;;;5014769;28;20759;-84
2021/07/29 08:36:33;;;;;;;24.27;10.25;;;794.50;2073.60;;;;;;5014764;28;20034;-84
2021/07/29 08:38:59;;;;;;;29.58;12.20;;;794.20;2048.00;;;;;;5015860;28;20446;-85
2021/07/29 08:41:25;;;;;;;28.42;12.02;;;819.20;2073.60;;;;;;5015180;28;20025;-84
2021/07/29 08:43:51;;;;;;;29.13;12.18;;;819.30;2048.00;;;;;;5014959;28;20029;-84
2021/07/29 08:46:19;;;;;;;25.90;10.30;;;819.70;2073.60;;;;;;5014974;28;20129;-84
2021/07/29 08:48:51;;;;;;;27.10;9.43;;;819.60;2022.40;;;;;;5014590;28;20030;-84
2021/07/29 08:51:23;;;;;;;32.88;12.13;;;819.30;1996.80;;;;;;5019247;28;20034;-84
2021/07/29 08:53:50;;;;;;;37.10;12.02;;;819.60;2022.40;;;;;;5016982;28;20034;-84
2021/07/29 08:56:18;;;;;;;30.45;12.45;;;819.80;1971.20;;;;;;5013817;28;20454;-84
2021/07/29 08:58:45;;;;;;;32.28;12.48;;;820.10;1996.80;;;;;;5013970;28;20029;-84
2021/07/29 09:01:12;;;;;;;29.52;11.65;;;844.80;1996.80;;;;;;5014264;28;20387;-83
2021/07/29 09:03:41;;;;;;;26.70;9.93;;;820.00;1920.00;;;;;;5017736;28;20029;-84
2021/07/29 09:06:09;;;;;;;33.13;10.85;;;819.90;1894.40;;;;;;5013384;28;20034;-85
2021/07/29 09:08:50;;;;;;;29.65;10.65;;;820.10;1920.00;;;;;;5014233;28;20030;-84
2021/07/29 09:11:38;;;;;;;32.00;12.82;;;820.10;1894.40;;;;;;5016024;28;20109;-87
2021/07/29 09:14:08;;;;;;;29.45;9.80;;;;;;;;;;5012653;28;20080;-85
2021/07/29 09:16:38;;;;;;;23.23;10.43;;;845.40;1945.60;;;;;;5013004;28;20045;-85
2021/07/29 09:19:05;;;;;;;27.42;11.23;;;845.50;1920.00;;;;;;5013935;28;20386;-83
2021/07/29 09:21:31;;;;;;;28.25;11.18;;;845.50;1843.20;;;;;;5011886;28;20026;-82
2021/07/29 09:24:08;;;;;;;28.75;10.18;;;870.40;1817.60;;;;;;5013437;28;20113;-83
2021/07/29 09:26:57;;;;;;;31.92;10.93;;;870.50;1792.00;;;;;;5012349;28;20033;-84
2021/07/29 09:29:25;;;;;;;31.27;13.77;;;870.80;1792.00;;;;;;5014946;28;20030;-84
2021/07/29 09:32:09;;;;;;;33.05;14.02;;;870.90;1792.00;;;;;;5014646;28;20030;-84
2021/07/29 09:34:50;;;;;;;28.40;9.95;;;870.90;1817.60;;;;;;5015115;28;20029;-83
2021/07/29 09:37:17;;;;;;;29.40;10.20;;;871.10;1740.80;;;;;;5015102;28;20085;-83
2021/07/29 09:39:44;;;;;;;25.85;9.90;;;871.10;1766.40;;;;;;5014074;28;20026;-83
2021/07/29 10:01:40;;;;;;;31.70;11.27;;;896.60;1587.20;;;;;;5060762;28;20105;-88
2021/07/29 10:04:13;;;;;;;30.13;8.43;;;896.80;1561.60;;;;;;5051204;28;20067;-88
2021/07/29 10:10:25;;;;;;;24.80;9.45;;;896.90;1536.00;;;;;;5015294;28;20026;-88
2021/07/29 10:12:52;;;;;;;26.77;8.52;;;922.00;1612.80;;;;;;5013183;28;20029;-87
2021/07/29 10:21:48;;;;;;;26.33;9.00;;;922.50;1561.60;;;;;;5013249;28;19901;-88
2021/07/29 10:24:15;;;;;;;28.38;8.05;;;896.20;1510.40;;;;;;4996135;28;20022;-88
2021/07/29 10:30:22;;;;;;;22.15;8.05;;;922.10;1561.60;;;;;;5045624;28;20028;-90
2021/07/29 10:32:57;;;;;;;24.42;7.65;;;922.10;1561.60;;;;;;5036935;28;20025;-89
2021/07/29 10:35:55;;;;;;;22.88;8.32;;;922.10;1536.00;;;;;;5037102;28;20025;-90
2021/07/29 10:39:17;;;;;;;19.60;8.48;;;922.10;1536.00;;;;;;5037139;28;20024;-91
2021/07/29 10:45:51;;;;;;;20.67;8.77;;;922.50;1510.40;;;;;;5000216;28;20574;-89
2021/07/29 10:49:16;;;;;;;25.92;9.02;;;947.90;1561.60;;;;;;5016428;28;20112;-91
2021/07/29 10:52:10;;;;;;;30.92;8.25;;;972.80;1536.00;;;;;;5016340;28;20029;-89
2021/07/29 10:54:39;;;;;;;24.33;8.98;;;948.10;1459.20;;;;;;5019278;28;20112;-89
2021/07/29 10:57:37;;;;;;;25.55;8.27;;;947.80;1433.60;;;;;;5002745;28;20042;-92
2021/07/29 11:00:10;;;;;;;20.75;8.90;;;948.10;1433.60;;;;;;4981483;28;20111;-88
2021/07/29 11:07:24;;;;;;;21.40;8.65;;;973.20;1433.60;;;;;;4939130;29;20075;-89
2021/07/29 11:10:13;;;;;;;24.10;10.07;;;973.40;1382.40;;;;;;4955553;28;20046;-91
2021/07/29 11:12:42;;;;;;;19.33;8.35;;;973.70;1408.00;;;;;;4996090;28;20083;-90
2021/07/29 11:15:18;;;;;;;27.85;8.13;;;998.40;1408.00;;;;;;5017668;28;20474;-89
2021/07/29 11:17:44;;;;;;;28.50;7.30;;;998.80;1408.00;;;;;;5017652;28;20030;-89
2021/07/29 11:20:13;;;;;;;19.05;7.85;;;973.00;1382.40;;;;;;5020319;28;20038;-88
2021/07/29 11:23:26;;;;;;;26.83;8.00;;;973.50;1382.40;;;;;;5028049;28;20018;-87
2021/07/29 11:25:57;;;;;;;22.80;7.55;;;998.80;1382.40;;;;;;5029590;28;20483;-86
2021/07/29 11:28:23;;;;;;;23.42;7.20;;;998.90;1356.80;;;;;;5028626;28;20026;-88
2021/07/29 11:31:21;;;;;;;24.20;7.35;;;998.80;1382.40;;;;;;5026447;28;20053;-89
2021/07/29 11:33:50;;;;;;;29.67;8.90;;;998.80;1331.20;;;;;;5017413;28;20026;-88
2021/07/29 11:36:16;;;;;;;21.05;7.68;;;998.90;1356.80;;;;;;5016363;28;20029;-84
2021/07/29 11:38:42;;;;;;;21.75;7.07;;;999.10;1356.80;;;;;;5016468;28;20121;-85
2021/07/29 11:41:08;;;;;;;20.85;7.97;;;1024.00;1331.20;;;;;;5016727;28;20025;-84
2021/07/29 11:43:34;;;;;;;25.20;7.55;;;1024.00;1280.00;;;;;;5016014;28;20076;-84
2021/07/29 11:46:08;;;;;;;28.15;7.40;;;1024.00;1254.40;;;;;;5016059;28;20026;-83
2021/07/29 11:48:34;;;;;;;21.27;7.45;;;1024.20;1305.60;;;;;;5016021;28;20018;-84
2021/07/29 11:51:00;;;;;;;26.23;7.68;;;1024.10;1280.00;;;;;;5016314;28;20048;-84
2021/07/29 11:53:38;;;;;;;23.27;6.75;;;1024.20;1280.00;;;;;;5016106;28;20022;-85
2021/07/29 11:56:06;;;;;;;33.75;10.60;;;999.20;1254.40;;;;;;5015912;28;20048;-85
2021/07/29 11:58:32;;;;;;;26.05;9.85;;;999.30;1280.00;;;;;;5034098;28;20052;-83
2021/07/29 12:00:59;;;;;;;29.40;7.93;;;1024.00;1280.00;;;;;;5035474;28;20025;-83
2021/07/29 12:03:24;;;;;;;27.65;8.05;;;1024.10;1228.80;;;;;;5035558;28;20053;-83
2021/07/29 12:05:50;;;;;;;30.08;11.90;;;1024.20;1228.80;;;;;;5034890;28;20021;-83
2021/07/29 12:08:16;;;;;;;30.02;11.35;;;1024.20;1254.40;;;;;;5034856;28;20068;-82
2021/07/29 12:10:43;;;;;;;22.20;8.43;;;1024.50;1228.80;;;;;;5034884;28;20139;-84
2021/07/29 12:13:09;;;;;;;19.17;8.52;;;1024.60;1254.40;;;;;;5035411;28;20017;-82
2021/07/29 12:15:36;;;;;;;27.90;7.45;;;1024.60;1228.80;;;;;;5035842;28;20026;-87
2021/07/29 12:18:21;;;;;;;29.70;9.80;;;1024.50;1228.80;;;;;;5035462;28;20033;-85
2021/07/29 12:20:52;;;;;;;22.02;6.90;;;1049.60;1254.40;;;;;;5035842;28;20017;-88
2021/07/29 12:23:19;;;;;;;23.60;8.68;;;1024.70;1228.80;;;;;;5035991;28;20020;-88
2021/07/29 12:25:46;;;;;;;22.58;6.45;;;1024.90;1203.20;;;;;;5035254;28;20024;-85
2021/07/29 12:28:35;;;;;;;19.23;6.57;;;1049.70;1254.40;;;;;;5035017;28;20032;-86
2021/07/29 12:31:19;;;;;;;26.23;8.68;;;1024.90;1203.20;;;;;;5034368;28;20024;-84
2021/07/29 12:34:05;;;;;;;22.60;7.28;;;1049.60;1254.40;;;;;;5034714;28;20025;-84
2021/07/29 12:36:44;;;;;;;20.30;8.10;;;1049.60;1228.80;;;;;;5035104;28;20458;-85
2021/07/29 12:39:12;;;;;;;26.70;7.28;;;1049.70;1254.40;;;;;;5034313;28;20025;-83
2021/07/29 12:41:39;;;;;;;21.55;7.60;;;1049.90;1254.40;;;;;;5036984;28;20021;-83
2021/07/29 12:44:13;;;;;;;20.05;6.50;;;1049.70;1228.80;;;;;;5037450;28;20032;-82
2021/07/29 12:46:40;;;;;;;23.60;8.63;;;1024.50;1177.60;;;;;;5037896;28;20089;-83
2021/07/29 12:49:06;;;;;;;23.23;8.93;;;1024.60;1203.20;;;;;;5040283;28;20033;-82
2021/07/29 12:51:45;;;;;;;22.70;8.23;;;1049.70;1254.40;;;;;;5037292;28;20532;-84
2021/07/29 12:54:13;;;;;;;30.63;7.00;;;1049.70;1203.20;;;;;;5036731;28;20025;-83
2021/07/29 12:56:39;;;;;;;23.83;7.03;;;1024.60;1177.60;;;;;;5037492;28;20220;-82
2021/07/29 12:59:06;;;;;;;23.55;9.00;;;1049.60;1228.80;;;;;;5040968;28;20026;-83
2021/07/29 13:01:33;;;;;;;21.55;8.00;;;1049.90;1203.20;;;;;;5038605;28;20053;-82
2021/07/29 13:03:59;;;;;;;19.55;6.75;;;1050.00;1203.20;;;;;;5035306;28;20112;-83
2021/07/29 13:06:25;;;;;;;18.27;6.32;;;1049.60;1152.00;;;;;;5034178;28;20022;-84
2021/07/29 13:08:53;;;;;;;28.55;7.70;;;1050.00;1152.00;;;;;;5034444;28;20059;-84
2021/07/29 13:11:20;;;;;;;20.73;7.35;;;1050.00;1126.40;;;;;;5034396;28;20422;-84
2021/07/29 13:13:45;;;;;;;20.95;7.05;;;1049.60;1126.40;;;;;;5033427;28;20463;-83
2021/07/29 13:16:12;;;;;;;28.02;15.48;;;1024.70;1100.80;;;;;;5034446;28;20040;-82
2021/07/29 13:18:37;;;;;;;30.73;12.38;;;1024.90;1126.40;;;;;;5039788;28;20079;-82
2021/07/29 13:21:05;;;;;;;27.45;9.93;;;1049.70;1152.00;;;;;;5039354;28;20478;-81
2021/07/29 13:23:31;;;;;;;27.90;12.23;;;1049.90;1152.00;;;;;;5037174;28;20168;-81
2021/07/29 13:25:57;;;;;;;24.40;9.52;;;1049.90;1177.60;;;;;;5041711;28;20029;-85
2021/07/29 13:28:24;;;;;;;19.77;7.78;;;1050.00;1152.00;;;;;;5040533;28;20056;-86
2021/07/29 13:30:50;;;;;;;25.25;9.05;;;1050.00;1126.40;;;;;;5039440;28;20086;-85
2021/07/29 13:33:17;;;;;;;25.02;7.25;;;1050.10;1177.60;;;;;;5041981;28;20049;-86
2021/07/29 13:35:44;;;;;;;19.23;7.70;;;1050.00;1126.40;;;;;;5034484;28;20455;-84
2021/07/29 13:38:11;;;;;;;25.13;8.13;;;1049.90;1177.60;;;;;;5033850;28;20112;-87
2021/07/29 13:40:36;;;;;;;25.70;8.98;;;1050.10;1177.60;;;;;;5033951;28;20370;-86
2021/07/29 13:43:03;;;;;;;22.80;8.40;;;1050.40;1177.60;;;;;;5033670;28;20107;-85
2021/07/29 13:45:29;;;;;;;25.10;8.10;;;1050.50;1177.60;;;;;;5034777;28;20013;-83